createdAt,value
2023-02-09T00:04:16.854Z,-2.13
2023-02-09T00:09:19.718Z,-2.38
2023-02-09T00:14:22.894Z,-2.48
2023-02-09T00:19:27.080Z,-2.26
2023-02-09T00:24:29.879Z,-2.19
2023-02-09T00:29:33.030Z,-2.52
2023-02-09T00:34:37.985Z,-2.40
2023-02-09T00:39:40.986Z,-2.34
2023-02-09T00:44:43.762Z,-2.18
2023-02-09T00:49:48.072Z,-2.83
2023-02-09T00:54:50.825Z,-2.45
2023-02-09T00:59:53.606Z,-2.31
2023-02-09T01:04:57.829Z,-2.38
2023-02-09T01:10:03.106Z,-2.50
2023-02-09T01:15:06.394Z,-2.53
2023-02-09T01:20:11.783Z,-2.48
2023-02-09T01:25:14.517Z,-2.44
2023-02-09T01:30:18.804Z,-2.41
2023-02-09T01:35:22.977Z,-2.62
2023-02-09T01:40:25.897Z,-2.71
2023-02-09T01:45:31.119Z,-2.81
2023-02-09T01:50:37.170Z,-2.81
2023-02-09T01:55:43.280Z,-2.88
2023-02-09T02:00:46.947Z,-2.74
2023-02-09T02:05:53.342Z,-2.79
2023-02-09T02:10:56.390Z,-2.92
2023-02-09T02:16:05.297Z,-2.88
2023-02-09T02:21:31.171Z,-2.72
2023-02-09T02:26:44.909Z,-2.80
2023-02-09T02:32:12.074Z,-2.87
2023-02-09T02:37:33.779Z,-2.97
2023-02-09T02:42:51.618Z,-2.96
2023-02-09T02:48:00.506Z,-3.05
2023-02-09T02:53:05.636Z,-3.14
2023-02-09T02:58:10.764Z,-3.13
2023-02-09T03:03:16.570Z,-3.20
2023-02-09T03:08:19.314Z,-3.39
2023-02-09T03:13:39.404Z,-3.16
2023-02-09T03:18:52.268Z,-3.38
2023-02-09T03:23:59.527Z,-3.54
2023-02-09T03:29:02.674Z,-3.35
2023-02-09T03:34:07.093Z,-3.52
2023-02-09T03:39:09.875Z,-3.29
2023-02-09T03:44:27.966Z,-3.34
2023-02-09T03:49:34.241Z,-3.33
2023-02-09T03:54:37.339Z,-3.49
2023-02-09T03:59:40.319Z,-3.24
2023-02-09T04:04:44.754Z,-3.28
2023-02-09T04:09:48.044Z,-3.33
2023-02-09T04:14:50.783Z,-3.42
2023-02-09T04:19:54.840Z,-3.59
2023-02-09T04:24:57.673Z,-3.65
2023-02-09T04:30:00.464Z,-3.70
2023-02-09T04:35:04.674Z,-3.79
2023-02-09T04:40:07.978Z,-3.88
2023-02-09T04:45:10.951Z,-3.75
2023-02-09T04:50:15.537Z,-3.88
2023-02-09T04:55:18.576Z,-3.88
2023-02-09T05:00:21.546Z,-4.02
2023-02-09T05:05:25.690Z,-4.06
2023-02-09T05:10:28.526Z,-4.16
2023-02-09T05:15:31.478Z,-4.18
2023-02-09T05:20:36.392Z,-4.13
2023-02-09T05:25:39.370Z,-4.30
2023-02-09T05:30:42.354Z,-4.27
2023-02-09T05:35:46.726Z,-4.24
2023-02-09T05:40:50.158Z,-4.29
2023-02-09T05:45:53.177Z,-4.17
2023-02-09T05:50:57.911Z,-4.23
2023-02-09T05:56:01.629Z,-4.10
2023-02-09T06:01:06.097Z,-4.23
2023-02-09T06:06:10.423Z,-4.40
2023-02-09T06:11:13.126Z,-4.43
2023-02-09T06:16:15.911Z,-4.39
2023-02-09T06:21:20.125Z,-4.34
2023-02-09T06:26:22.980Z,-4.45
2023-02-09T06:31:25.829Z,-4.46
2023-02-09T06:36:30.039Z,-4.16
2023-02-09T06:41:32.763Z,-4.01
2023-02-09T06:46:35.587Z,-3.99
2023-02-09T06:51:39.796Z,-4.01
2023-02-09T06:56:42.680Z,-4.21
2023-02-09T07:01:45.412Z,-4.14
2023-02-09T07:06:49.565Z,-4.27
2023-02-09T07:11:52.335Z,-4.15
2023-02-09T07:16:55.177Z,-4.03
2023-02-09T07:21:59.291Z,-3.96
2023-02-09T07:27:02.399Z,-3.80
2023-02-09T07:32:06.887Z,-3.85
2023-02-09T07:37:11.184Z,-3.70
2023-02-09T07:42:14.130Z,-3.73
2023-02-09T07:47:25.425Z,-3.64
2023-02-09T07:52:29.532Z,-3.64
2023-02-09T07:57:32.921Z,-3.37
2023-02-09T08:02:37.663Z,-3.33
2023-02-09T08:07:41.742Z,-3.10
2023-02-09T08:13:02.771Z,-1.79
2023-02-09T08:18:12.444Z,0.05
2023-02-09T08:23:20.993Z,-0.55
2023-02-09T08:28:38.226Z,1.81
2023-02-09T08:33:47.187Z,0.40
2023-02-09T08:38:51.644Z,-1.69
2023-02-09T08:43:54.392Z,-1.80
2023-02-09T08:48:57.208Z,-1.69
2023-02-09T08:54:01.349Z,-1.52
2023-02-09T08:59:04.301Z,-1.38
2023-02-09T09:04:07.159Z,-1.22
2023-02-09T09:09:11.327Z,-1.13
2023-02-09T09:14:14.118Z,-1.00
2023-02-09T09:19:16.806Z,-0.86
2023-02-09T09:24:21.164Z,-0.80
2023-02-09T09:29:24.504Z,-0.71
2023-02-09T09:34:27.433Z,-0.71
2023-02-09T09:39:31.539Z,-0.52
2023-02-09T09:44:36.884Z,-0.43
2023-02-09T09:49:40.293Z,-0.36
2023-02-09T09:54:45.108Z,-0.28
2023-02-09T09:59:48.265Z,-0.20
2023-02-09T10:04:51.380Z,-0.29
2023-02-09T10:09:58.393Z,-0.15
2023-02-09T10:15:16.567Z,0.19
2023-02-09T10:20:19.711Z,0.27
2023-02-09T10:25:39.321Z,0.34
2023-02-09T10:30:42.179Z,0.42
2023-02-09T10:35:50.999Z,0.66
2023-02-09T10:40:55.431Z,0.81
2023-02-09T10:46:01.195Z,0.99
2023-02-09T10:51:06.744Z,1.01
2023-02-09T10:56:17.606Z,1.26
2023-02-09T11:01:23.322Z,1.51
2023-02-09T11:06:26.068Z,1.62
2023-02-09T11:11:33.206Z,1.70
2023-02-09T11:16:51.018Z,1.70
2023-02-09T11:22:03.694Z,1.85
2023-02-09T11:27:23.664Z,2.10
2023-02-09T11:32:30.290Z,2.16
2023-02-09T11:37:40.754Z,2.25
2023-02-09T11:42:49.313Z,2.32
2023-02-09T11:47:59.920Z,2.30
2023-02-09T11:53:05.492Z,2.58
2023-02-09T11:58:26.437Z,2.77
2023-02-09T12:03:29.409Z,2.73
2023-02-09T12:08:51.750Z,2.77
2023-02-09T12:14:03.836Z,2.83
2023-02-09T12:19:08.345Z,2.95
2023-02-09T12:24:32.944Z,2.86
2023-02-09T12:29:38.917Z,3.01
2023-02-09T12:34:42.978Z,3.16
2023-02-09T12:40:23.709Z,3.15
2023-02-09T12:45:36.633Z,3.32
2023-02-09T12:50:51.246Z,3.40
2023-02-09T12:56:02.060Z,3.53
2023-02-09T13:01:06.810Z,3.38
2023-02-09T13:06:23.090Z,3.27
2023-02-09T13:11:27.802Z,3.43
2023-02-09T13:16:56.496Z,3.53
2023-02-09T13:22:03.073Z,3.62
2023-02-09T13:27:18.707Z,3.66
2023-02-09T13:32:31.768Z,3.56
2023-02-09T13:37:38.346Z,3.75
2023-02-09T13:42:53.351Z,3.82
2023-02-09T13:47:59.138Z,3.88
2023-02-09T13:53:10.163Z,3.74
2023-02-09T13:58:17.882Z,3.77
2023-02-09T14:03:25.628Z,3.79
2023-02-09T14:08:29.081Z,3.88
2023-02-09T14:13:34.884Z,3.88
2023-02-09T14:18:48.055Z,3.92
2023-02-09T14:24:12.775Z,3.98
2023-02-09T14:29:18.828Z,3.96
2023-02-09T14:34:32.978Z,3.94
2023-02-09T14:39:54.339Z,3.92
2023-02-09T14:44:58.426Z,3.92
2023-02-09T14:50:02.868Z,3.90
2023-02-09T14:55:07.402Z,3.80
2023-02-09T15:00:18.389Z,3.76
2023-02-09T15:05:23.135Z,3.75
2023-02-09T15:10:29.057Z,3.69
2023-02-09T15:15:33.167Z,3.58
2023-02-09T15:20:37.256Z,3.48
2023-02-09T15:25:40.990Z,3.49
2023-02-09T15:30:45.200Z,3.35
2023-02-09T15:35:50.085Z,3.29
2023-02-09T15:41:10.438Z,3.14
2023-02-09T15:46:30.830Z,3.06
2023-02-09T15:51:36.741Z,3.00
2023-02-09T15:56:40.138Z,2.84
2023-02-09T16:01:43.003Z,2.82
2023-02-09T16:06:50.139Z,2.70
2023-02-09T16:11:52.895Z,2.68
2023-02-09T16:16:55.851Z,2.54
2023-02-09T16:22:02.888Z,2.52
2023-02-09T16:27:14.202Z,2.36
2023-02-09T16:32:18.534Z,2.29
2023-02-09T16:37:26.102Z,2.22
2023-02-09T16:42:29.376Z,2.11
2023-02-09T16:47:32.733Z,2.04
2023-02-09T16:52:36.816Z,1.89
2023-02-09T16:57:39.513Z,1.85
2023-02-09T17:02:44.729Z,1.72
2023-02-09T17:07:54.796Z,1.65
2023-02-09T17:12:58.461Z,1.58
2023-02-09T17:18:02.901Z,1.49
2023-02-09T17:23:07.125Z,1.35
2023-02-09T17:28:09.920Z,1.34
2023-02-09T17:33:19.358Z,1.30
2023-02-09T17:38:25.771Z,1.20
2023-02-09T17:43:29.503Z,1.13
2023-02-09T17:48:32.234Z,1.06
2023-02-09T17:53:36.569Z,1.06
2023-02-09T17:58:39.301Z,1.07
2023-02-09T18:03:42.045Z,1.02
2023-02-09T18:08:46.077Z,1.05
2023-02-09T18:13:48.772Z,1.21
2023-02-09T18:18:51.466Z,1.23
2023-02-09T18:23:55.509Z,1.27
2023-02-09T18:28:58.210Z,1.27
2023-02-09T18:34:00.928Z,1.26
2023-02-09T18:39:05.128Z,1.29
2023-02-09T18:44:07.850Z,1.26
2023-02-09T18:49:12.575Z,1.30
2023-02-09T18:54:16.636Z,1.25
2023-02-09T18:59:19.571Z,1.16
2023-02-09T19:04:24.965Z,1.18
2023-02-09T19:09:29.595Z,1.22
2023-02-09T19:14:38.142Z,1.27
2023-02-09T19:19:41.484Z,1.30
2023-02-09T19:24:45.773Z,1.35
2023-02-09T19:29:48.560Z,1.46
2023-02-09T19:34:51.642Z,1.45
2023-02-09T19:40:04.492Z,1.49
2023-02-09T19:45:07.882Z,1.46
2023-02-09T19:50:11.436Z,1.48
2023-02-09T19:55:15.957Z,1.52
2023-02-09T20:00:19.379Z,1.53
2023-02-09T20:05:22.152Z,1.47
2023-02-09T20:10:26.311Z,1.44
2023-02-09T20:15:29.117Z,1.51
2023-02-09T20:20:31.852Z,1.54
2023-02-09T20:25:36.207Z,1.55
2023-02-09T20:30:41.781Z,1.51
2023-02-09T20:35:45.959Z,1.61
2023-02-09T20:40:50.730Z,1.59
2023-02-09T20:46:11.261Z,1.60
2023-02-09T20:51:14.062Z,1.62
2023-02-09T20:56:18.150Z,1.58
2023-02-09T21:01:23.118Z,1.58
2023-02-09T21:06:26.226Z,1.57
2023-02-09T21:11:30.376Z,1.58
2023-02-09T21:16:33.245Z,1.50
2023-02-09T21:21:35.998Z,1.46
2023-02-09T21:26:41.289Z,1.44
2023-02-09T21:31:44.745Z,1.43
2023-02-09T21:36:47.503Z,1.44
2023-02-09T21:42:09.085Z,1.46
2023-02-09T21:47:11.911Z,1.51
2023-02-09T21:52:14.609Z,1.53
2023-02-09T21:57:18.942Z,1.46
2023-02-09T22:02:21.747Z,1.47
2023-02-09T22:07:24.556Z,1.53
2023-02-09T22:12:28.739Z,1.51
2023-02-09T22:17:31.442Z,1.51
2023-02-09T22:22:34.220Z,1.54
2023-02-09T22:27:38.637Z,1.58
2023-02-09T22:32:41.318Z,1.58
2023-02-09T22:37:44.005Z,1.60
2023-02-09T22:42:48.069Z,1.58
2023-02-09T22:47:50.777Z,1.61
2023-02-09T22:52:53.583Z,1.65
2023-02-09T22:57:57.754Z,1.67
2023-02-09T23:03:00.506Z,1.65
2023-02-09T23:08:03.310Z,1.71
2023-02-09T23:13:07.379Z,1.68
2023-02-09T23:18:10.098Z,1.74
2023-02-09T23:23:12.816Z,1.77
2023-02-09T23:28:17.295Z,1.78
2023-02-09T23:33:20.068Z,1.81
2023-02-09T23:38:22.821Z,1.76
2023-02-09T23:43:27.126Z,1.70
2023-02-09T23:48:30.045Z,1.74
2023-02-09T23:53:33.697Z,1.75
2023-02-09T23:58:39.808Z,1.70
